• Join FlightAware (Why Join?)
  • Login
  • US Flag 
08:59PM EDT


 

Airport Tracker/Info


-or-


 

Live Flight TrackerFlight Track Log ✈ AMF1324 ✈ 06-Nov-2013 ✈ KBGM - KBUF

Flight Track Log - Related Links

Times and Time Zones

All times are in EST time to prevent confusion due to time zone crossing. See the AMF1324 flight status page for this flight to view local times or setup timezone preferences in your user account.

Time Position Orientation Groundspeed Altitude Reporting Facility
EST Latitude Longitude Course Direction KTS MPH feet Rate Location/Type
08:21AM 42.1628 -76.0361 297° West 166 191 5,600  Level New York Center
08:22AM 42.1556 -76.1025 262° West 166 191 7,000 1,500 Climbing New York Center
08:23AM 42.1714 -76.1653 289° West 171 197 8,600 1,500 Climbing New York Center
08:24AM 42.1978 -76.2264 300° West 181 208 10,100 1,500 Climbing New York Center
08:25AM 42.2242 -76.2875 300° West 186 214 11,700 900 Climbing New York Center
08:26AM 42.2965 -76.2946 297° West  Level Estimated
08:26AM 42.2503 -76.3511 299° West 186 214 11,900  Level New York Center
08:27AM 42.2803 -76.4208 300° West 202 232 11,900  Level New York Center
08:28AM 42.3225 -76.4975 307° West 215 247 11,900  Level New York Center
08:30AM 42.3661 -76.5911 302° West 223 257 11,900  Level Cleveland Center
08:31AM 42.3983 -76.6631 301° West 224 258 11,900 60 Level Cleveland Center
08:32AM 42.4325 -76.7328 304° West 223 257 12,100 60 Climbing Cleveland Center
08:33AM 42.4658 -76.8006 304° West 219 252 12,100  Level Cleveland Center
08:34AM 42.4978 -76.8722 301° West 223 257 12,100  Level Cleveland Center
08:35AM 42.5392 -76.9564 304° West 225 259 12,100  Level Cleveland Center
08:36AM 42.5658 -77.0303 296° West 221 254 12,100 -60 Level Cleveland Center
08:37AM 42.5944 -77.1058 297° West 225 259 12,000 -60 Descending Cleveland Center
08:38AM 42.6211 -77.1817 296° West 225 259 12,000  Level Cleveland Center
08:39AM 42.6461 -77.2581 294° West 223 257 12,000  Level Cleveland Center
08:40AM 42.6725 -77.3344 295° West 224 258 12,000  Level Cleveland Center
08:41AM 42.7019 -77.4261 294° West 223 257 12,000  Level Cleveland Center
08:42AM 42.7292 -77.4997 297° West 221 254 12,000  Level Cleveland Center
08:43AM 42.7614 -77.5692 302° West 221 254 12,000  Level Cleveland Center
08:44AM 42.7836 -77.6019 313° West 219 252 12,000 -360 Level Cleveland Center
08:44AM 42.8028 -77.6303 313° West 226 260 11,700 -540 Descending Cleveland Center
08:44AM 42.8022 -77.6311 228° Southwest 222 255 11,700 -720 Level Cleveland Center
08:45AM 42.8461 -77.6992 311° West 238 274 11,000 -780 Descending Cleveland Center
08:45AM 42.8528 -77.7117 306° West 234 269 10,900 -1,080 Descending Cleveland Center
08:46AM 42.8872 -77.7867 302° West 247 284 9,700 -1,080 Descending Cleveland Center
08:47AM 42.8967 -77.8628 280° West 219 252 8,900 -900 Descending Cleveland Center
08:47AM 42.8975 -77.8711 278° West 232 267 8,800 -1,020 Descending Cleveland Center
08:48AM 42.9056 -77.9608 277° West 219 252 7,700 -960 Descending Cleveland Center
08:49AM 42.9081 -78.0469 272° West 219 252 6,900 -1,020 Descending Cleveland Center
08:50AM 42.9081 -78.1336 270° West 219 252 5,700 -1,140 Descending Cleveland Center
08:51AM 42.9122 -78.2211 274° West 222 255 4,600 -840 Descending Cleveland Center
08:52AM 42.9175 -78.3069 275° West 219 252 4,000 -300 Descending Cleveland Center
08:53AM 42.9431 -78.3744 297° West 208 239 4,000 -360 Level Cleveland Center
08:54AM 42.9697 -78.4514 295° West 213 245 3,300 -720 Descending Cleveland Center
08:55AM 42.9764 -78.5283 277° West 194 223 2,600 -480 Descending Cleveland Center
08:57AM 42.9761 -78.5975 270° West 176 203 2,400 -360 Descending Cleveland Center
08:57AM 42.9833 -78.6333 285° West 110 127 2,000 -420 Descending Buffalo TRACON
08:58AM 42.9667 -78.6833 246° West 110 127 1,600 -480 Descending Buffalo TRACON
09:00AM 42.9500 -78.7167 236° Southwest 113 130 1,000 -600 Descending Buffalo TRACON
09:02AM 42.9333 -78.7167 270° West  Level FlightAware Approximate